createdAt,value
2018-01-05T00:00:02.957Z,8.70
2018-01-05T00:01:06.277Z,8.70
2018-01-05T00:02:08.791Z,8.70
2018-01-05T00:03:11.315Z,8.70
2018-01-05T00:04:13.833Z,8.70
2018-01-05T00:05:17.112Z,8.80
2018-01-05T00:06:19.677Z,8.80
2018-01-05T00:07:22.196Z,8.80
2018-01-05T00:08:24.712Z,8.80
2018-01-05T00:09:28.001Z,8.80
2018-01-05T00:10:31.283Z,8.80
2018-01-05T00:11:34.813Z,8.80
2018-01-05T00:12:37.331Z,8.80
2018-01-05T00:13:39.849Z,8.80
2018-01-05T00:14:42.366Z,8.80
2018-01-05T00:15:44.882Z,8.80
2018-01-05T00:16:47.469Z,8.80
2018-01-05T00:17:49.981Z,8.80
2018-01-05T00:18:53.261Z,8.70
2018-01-05T00:19:56.545Z,8.80
2018-01-05T00:20:59.865Z,8.80
2018-01-05T00:22:02.377Z,8.80
2018-01-05T00:23:04.933Z,8.80
2018-01-05T00:24:07.455Z,8.90
2018-01-05T00:25:10.013Z,8.80
2018-01-05T00:26:12.569Z,8.80
2018-01-05T00:27:15.083Z,8.80
2018-01-05T00:28:17.630Z,8.80
2018-01-05T00:29:20.149Z,8.90
2018-01-05T00:30:23.435Z,8.80
2018-01-05T00:31:26.760Z,8.80
2018-01-05T00:32:29.285Z,8.80
2018-01-05T00:33:32.606Z,8.90
2018-01-05T00:34:35.129Z,8.90
2018-01-05T00:35:38.419Z,8.90
2018-01-05T00:36:41.709Z,9.00
2018-01-05T00:37:45.007Z,8.90
2018-01-05T00:38:47.568Z,8.90
2018-01-05T00:39:50.086Z,8.90
2018-01-05T00:40:52.598Z,8.90
2018-01-05T00:41:55.123Z,8.90
2018-01-05T00:42:57.667Z,8.90
2018-01-05T00:44:00.196Z,8.90
2018-01-05T00:45:02.712Z,8.90
2018-01-05T00:46:05.229Z,8.90
2018-01-05T00:47:07.753Z,8.90
2018-01-05T00:48:10.313Z,8.80
2018-01-05T00:49:12.827Z,8.80
2018-01-05T00:50:15.374Z,8.80
2018-01-05T00:51:18.695Z,8.80
2018-01-05T00:52:21.212Z,8.80
2018-01-05T00:53:23.732Z,8.80
2018-01-05T00:54:26.248Z,8.70
2018-01-05T00:55:28.774Z,8.70
2018-01-05T00:56:31.328Z,8.70
2018-01-05T00:57:33.887Z,8.70
2018-01-05T00:58:36.392Z,8.60
2018-01-05T00:59:38.901Z,8.60
2018-01-05T01:00:42.191Z,8.60
2018-01-05T01:01:44.756Z,8.60
2018-01-05T01:02:47.276Z,8.60
2018-01-05T01:03:49.787Z,8.60
2018-01-05T01:04:52.322Z,8.50
2018-01-05T01:05:54.834Z,8.60
2018-01-05T01:06:57.382Z,8.60
2018-01-05T01:07:59.889Z,8.60
2018-01-05T01:09:02.437Z,8.50
2018-01-05T01:10:04.969Z,8.60
2018-01-05T01:11:08.265Z,8.50
2018-01-05T01:12:10.830Z,8.50
2018-01-05T01:13:13.354Z,8.60
2018-01-05T01:14:15.859Z,8.60
2018-01-05T01:15:18.375Z,8.50
2018-01-05T01:16:20.890Z,8.60
2018-01-05T01:17:24.223Z,8.50
2018-01-05T01:18:26.738Z,8.50
2018-01-05T01:19:30.017Z,8.50
2018-01-05T01:20:33.306Z,8.50
2018-01-05T01:21:36.590Z,8.50
2018-01-05T01:22:39.922Z,8.60
2018-01-05T01:23:42.445Z,8.60
2018-01-05T01:24:44.976Z,8.60
2018-01-05T01:25:47.525Z,8.60
2018-01-05T01:26:50.037Z,8.60
2018-01-05T01:27:53.329Z,8.50
2018-01-05T01:28:55.841Z,8.60
2018-01-05T01:29:58.354Z,8.60
2018-01-05T01:31:01.667Z,8.50
2018-01-05T01:32:04.184Z,8.50
2018-01-05T01:33:06.693Z,8.50
2018-01-05T01:34:09.214Z,8.50
2018-01-05T01:35:11.735Z,8.60
2018-01-05T01:36:14.284Z,8.50
2018-01-05T01:37:16.809Z,8.50
2018-01-05T01:38:19.336Z,8.50
2018-01-05T01:39:21.860Z,8.50
2018-01-05T01:40:25.164Z,8.40
2018-01-05T01:41:27.681Z,8.40
2018-01-05T01:42:30.253Z,8.40
2018-01-05T01:43:33.544Z,8.40
2018-01-05T01:44:36.833Z,8.40
2018-01-05T01:45:40.149Z,8.40
2018-01-05T01:46:42.669Z,8.40
2018-01-05T01:47:45.339Z,8.40
2018-01-05T01:48:49.581Z,8.40
2018-01-05T01:49:52.110Z,8.40
2018-01-05T01:50:54.665Z,8.40
2018-01-05T01:51:57.189Z,8.50
2018-01-05T01:52:59.708Z,8.50
2018-01-05T01:54:02.218Z,8.50
2018-01-05T01:55:04.737Z,8.40
2018-01-05T01:56:07.302Z,8.50
2018-01-05T01:57:09.819Z,8.50
2018-01-05T01:59:21.141Z,8.50
2018-01-05T02:00:23.660Z,8.40
2018-01-05T02:01:26.212Z,8.40
2018-01-05T02:02:28.728Z,8.40
2018-01-05T02:03:31.247Z,8.40
2018-01-05T02:04:33.762Z,8.40
2018-01-05T02:05:36.325Z,8.30
2018-01-05T02:06:38.840Z,8.40
2018-01-05T02:07:41.377Z,8.30
2018-01-05T02:08:43.914Z,8.30
2018-01-05T02:09:46.432Z,8.30
2018-01-05T02:10:49.750Z,8.20
2018-01-05T02:11:52.256Z,8.20
2018-01-05T02:12:54.771Z,8.20
2018-01-05T02:13:57.290Z,8.20
2018-01-05T02:14:59.814Z,8.20
2018-01-05T02:16:02.382Z,8.10
2018-01-05T02:17:04.915Z,8.00
2018-01-05T02:18:08.241Z,8.00
2018-01-05T02:19:10.782Z,8.00
2018-01-05T02:20:13.305Z,8.00
2018-01-05T02:21:15.816Z,8.00
2018-01-05T02:22:18.326Z,8.00
2018-01-05T02:23:20.877Z,8.00
2018-01-05T02:24:23.396Z,8.00
2018-01-05T02:25:26.689Z,8.00
2018-01-05T02:26:29.244Z,8.00
2018-01-05T02:27:32.526Z,8.00
2018-01-05T02:28:35.849Z,8.00
2018-01-05T02:29:38.364Z,8.00
2018-01-05T02:30:41.644Z,8.00
2018-01-05T02:31:44.154Z,8.00
2018-01-05T02:32:46.676Z,8.00
2018-01-05T02:33:49.216Z,8.00
2018-01-05T02:34:51.738Z,8.00
2018-01-05T02:35:54.257Z,8.00
2018-01-05T02:36:56.782Z,8.00
2018-01-05T02:37:59.344Z,7.90
2018-01-05T02:39:01.859Z,7.90
2018-01-05T02:40:04.373Z,7.90
2018-01-05T02:41:06.894Z,7.80
2018-01-05T02:42:09.412Z,7.90
2018-01-05T02:43:11.968Z,7.80
2018-01-05T02:44:14.497Z,7.80
2018-01-05T02:45:17.102Z,7.80
2018-01-05T02:46:19.622Z,7.70
2018-01-05T02:47:22.133Z,7.80
2018-01-05T02:48:24.680Z,7.70
2018-01-05T02:49:27.961Z,7.70
2018-01-05T02:50:31.259Z,7.70
2018-01-05T02:51:33.780Z,7.70
2018-01-05T02:52:36.295Z,7.70
2018-01-05T02:53:38.846Z,7.70
2018-01-05T02:54:42.132Z,7.80
2018-01-05T02:55:44.657Z,7.70
2018-01-05T02:56:47.173Z,7.80
2018-01-05T02:57:49.741Z,7.80
2018-01-05T02:58:52.284Z,7.80
2018-01-05T02:59:55.576Z,7.80
2018-01-05T03:00:58.857Z,7.80
2018-01-05T03:02:02.146Z,7.80
2018-01-05T03:03:05.428Z,7.70
2018-01-05T03:04:08.757Z,7.70
2018-01-05T03:05:11.278Z,7.70
2018-01-05T03:06:14.585Z,7.70
2018-01-05T03:07:17.120Z,7.70
2018-01-05T03:08:20.389Z,7.70
2018-01-05T03:09:22.944Z,7.70
2018-01-05T03:10:25.488Z,7.70
2018-01-05T03:11:28.006Z,7.70
2018-01-05T03:12:31.289Z,7.70
2018-01-05T03:13:34.700Z,7.70
2018-01-05T03:14:37.226Z,7.60
2018-01-05T03:15:39.738Z,7.70
2018-01-05T03:16:42.288Z,7.60
2018-01-05T03:17:44.801Z,7.60
2018-01-05T03:18:47.321Z,7.60
2018-01-05T03:19:49.841Z,7.60
2018-01-05T03:20:52.375Z,7.60
2018-01-05T03:21:54.918Z,7.60
2018-01-05T03:22:57.434Z,7.50
2018-01-05T03:23:59.944Z,7.50
2018-01-05T03:25:03.218Z,7.60
2018-01-05T03:26:06.525Z,7.60
2018-01-05T03:27:09.034Z,7.60
2018-01-05T03:28:12.312Z,7.60
2018-01-05T03:29:14.826Z,7.50
2018-01-05T03:30:17.345Z,7.50
2018-01-05T03:31:19.901Z,7.50
2018-01-05T03:32:22.433Z,7.50
2018-01-05T03:33:24.951Z,7.50
2018-01-05T03:35:37.082Z,7.50
2018-01-05T03:36:40.402Z,7.50
2018-01-05T03:37:42.906Z,7.50
2018-01-05T03:38:45.429Z,7.50
2018-01-05T03:39:47.973Z,7.50
2018-01-05T03:40:50.494Z,7.50
2018-01-05T03:41:53.001Z,7.50
2018-01-05T03:42:55.521Z,7.50
2018-01-05T03:43:58.088Z,7.50
2018-01-05T03:45:00.604Z,7.60
2018-01-05T03:46:03.135Z,7.50
2018-01-05T03:47:05.648Z,7.50
2018-01-05T03:48:08.163Z,7.60
2018-01-05T03:49:11.501Z,7.50
2018-01-05T03:50:14.046Z,7.50
2018-01-05T03:51:16.564Z,7.50
2018-01-05T03:52:19.073Z,7.50
2018-01-05T03:53:22.388Z,7.60
2018-01-05T03:54:24.937Z,7.60
2018-01-05T03:55:27.482Z,7.60
2018-01-05T03:56:30.778Z,7.60
2018-01-05T03:57:34.060Z,7.60
2018-01-05T03:58:37.345Z,7.60
2018-01-05T03:59:40.629Z,7.60
2018-01-05T04:00:43.948Z,7.60
2018-01-05T04:01:46.461Z,7.60
2018-01-05T04:02:48.973Z,7.60
2018-01-05T04:03:51.658Z,7.60
2018-01-05T04:04:54.175Z,7.60
2018-01-05T04:05:57.493Z,7.60
2018-01-05T04:07:00.017Z,7.60
2018-01-05T04:08:03.301Z,7.60
2018-01-05T04:09:06.701Z,7.60
2018-01-05T04:10:09.225Z,7.60
2018-01-05T04:11:11.801Z,7.60
2018-01-05T04:12:14.325Z,7.60
2018-01-05T04:13:16.833Z,7.70
2018-01-05T04:14:19.353Z,7.60
2018-01-05T04:15:21.869Z,7.60
2018-01-05T04:16:24.420Z,7.60
2018-01-05T04:17:26.930Z,7.60
2018-01-05T04:18:29.469Z,7.70
2018-01-05T04:19:31.980Z,7.70
2018-01-05T04:20:34.497Z,7.70
2018-01-05T04:21:37.102Z,7.70
2018-01-05T04:22:39.614Z,7.70
2018-01-05T04:23:42.125Z,7.70
2018-01-05T04:24:44.634Z,7.70
2018-01-05T04:25:47.157Z,7.70
2018-01-05T04:26:49.715Z,7.70
2018-01-05T04:27:53.030Z,7.70
2018-01-05T04:28:55.542Z,7.70
2018-01-05T04:29:58.053Z,7.70
2018-01-05T04:31:00.617Z,7.80
2018-01-05T04:32:03.173Z,7.80
2018-01-05T04:33:05.693Z,7.80
2018-01-05T04:34:08.209Z,7.80
2018-01-05T04:35:10.726Z,7.80
2018-01-05T04:36:13.275Z,7.80
2018-01-05T04:37:15.791Z,7.90
2018-01-05T04:38:19.139Z,7.80
2018-01-05T04:39:21.648Z,7.80
2018-01-05T04:40:24.167Z,7.80
2018-01-05T04:41:26.683Z,7.80
2018-01-05T04:42:29.201Z,7.70
2018-01-05T04:43:31.752Z,7.70
2018-01-05T04:44:34.260Z,7.70
2018-01-05T04:45:37.570Z,7.70
2018-01-05T04:46:40.113Z,7.70
2018-01-05T04:47:43.401Z,7.60
2018-01-05T04:48:46.676Z,7.60
2018-01-05T04:49:49.966Z,7.60
2018-01-05T04:50:53.301Z,7.60
2018-01-05T04:51:55.825Z,7.60
2018-01-05T04:52:59.115Z,7.60
2018-01-05T04:54:01.632Z,7.50
2018-01-05T04:55:04.152Z,7.50
2018-01-05T04:56:06.705Z,7.50
2018-01-05T04:57:10.014Z,7.50
2018-01-05T04:58:12.536Z,7.40
2018-01-05T04:59:15.057Z,7.40
2018-01-05T05:00:17.577Z,7.40
2018-01-05T05:01:20.856Z,7.40
2018-01-05T05:02:24.176Z,7.40
2018-01-05T05:03:26.705Z,7.40
2018-01-05T05:04:29.989Z,7.40
2018-01-05T05:05:33.269Z,7.40
2018-01-05T05:06:36.560Z,7.40
2018-01-05T05:07:39.872Z,7.40
2018-01-05T05:08:42.388Z,7.40
2018-01-05T05:09:44.946Z,7.40
2018-01-05T05:10:47.466Z,7.40
2018-01-05T05:11:49.977Z,7.40
2018-01-05T05:12:52.493Z,7.40
2018-01-05T05:13:55.092Z,7.40
2018-01-05T05:14:57.642Z,7.40
2018-01-05T05:16:00.198Z,7.40
2018-01-05T05:17:02.727Z,7.40
2018-01-05T05:18:05.245Z,7.40
2018-01-05T05:19:07.793Z,7.50
2018-01-05T05:20:10.349Z,7.50
2018-01-05T05:21:12.851Z,7.50
2018-01-05T05:22:15.377Z,7.40
2018-01-05T05:23:18.661Z,7.40
2018-01-05T05:24:22.000Z,7.50
2018-01-05T05:25:24.513Z,7.50
2018-01-05T05:26:27.800Z,7.50
2018-01-05T05:27:31.085Z,7.50
2018-01-05T05:28:33.602Z,7.50
2018-01-05T05:29:36.156Z,7.50
2018-01-05T05:30:38.706Z,7.40
2018-01-05T05:31:41.273Z,7.40
2018-01-05T05:32:43.798Z,7.40
2018-01-05T05:33:46.310Z,7.40
2018-01-05T05:34:48.837Z,7.40
2018-01-05T05:35:52.152Z,7.40
2018-01-05T05:36:54.721Z,7.40
2018-01-05T05:37:57.262Z,7.40
2018-01-05T05:39:00.549Z,7.40
2018-01-05T05:40:03.062Z,7.40
2018-01-05T05:41:05.575Z,7.50
2018-01-05T05:42:08.884Z,7.50
2018-01-05T05:43:11.401Z,7.50
2018-01-05T05:44:13.927Z,7.50
2018-01-05T05:45:16.441Z,7.50
2018-01-05T05:46:19.755Z,7.50
2018-01-05T05:47:22.274Z,7.50
2018-01-05T05:48:24.790Z,7.50
2018-01-05T05:49:27.319Z,7.50
2018-01-05T05:50:29.873Z,7.40
2018-01-05T05:51:32.393Z,7.50
2018-01-05T05:52:34.944Z,7.50
2018-01-05T05:53:37.462Z,7.50
2018-01-05T05:54:39.989Z,7.50
2018-01-05T05:55:42.633Z,7.50
2018-01-05T05:56:45.948Z,7.50
2018-01-05T05:57:48.472Z,7.50
2018-01-05T05:58:51.759Z,7.50
2018-01-05T05:59:55.041Z,7.50
2018-01-05T06:00:58.379Z,7.50
2018-01-05T06:02:00.903Z,7.50
2018-01-05T06:03:04.186Z,7.50
2018-01-05T06:04:07.473Z,7.50
2018-01-05T06:05:10.756Z,7.50
2018-01-05T06:06:14.080Z,7.50
2018-01-05T06:07:16.597Z,7.40
2018-01-05T06:08:19.906Z,7.40
2018-01-05T06:09:22.469Z,7.40
2018-01-05T06:10:24.994Z,7.50
2018-01-05T06:11:27.521Z,7.50
2018-01-05T06:12:30.037Z,7.40
2018-01-05T06:13:33.321Z,7.40
2018-01-05T06:14:36.641Z,7.30
2018-01-05T06:15:39.161Z,7.30
2018-01-05T06:16:41.677Z,7.40
2018-01-05T06:17:44.244Z,7.30
2018-01-05T06:18:46.801Z,7.30
2018-01-05T06:19:49.316Z,7.30
2018-01-05T06:20:51.862Z,7.30
2018-01-05T06:21:54.395Z,7.20
2018-01-05T06:22:56.921Z,7.20
2018-01-05T06:23:59.461Z,7.20
2018-01-05T06:25:02.022Z,7.20
2018-01-05T06:26:04.549Z,7.10
2018-01-05T06:27:07.873Z,7.10
2018-01-05T06:28:10.395Z,7.10
2018-01-05T06:29:13.677Z,6.90
2018-01-05T06:30:16.968Z,6.90
2018-01-05T06:31:20.305Z,6.90
2018-01-05T06:32:22.819Z,6.80
2018-01-05T06:33:26.104Z,6.70
2018-01-05T06:34:28.621Z,6.70
2018-01-05T06:35:31.142Z,6.70
2018-01-05T06:36:33.689Z,6.70
2018-01-05T06:37:36.973Z,6.70
2018-01-05T06:38:40.253Z,6.70
2018-01-05T06:39:43.534Z,6.60
2018-01-05T06:40:46.854Z,6.60
2018-01-05T06:41:49.412Z,6.60
2018-01-05T06:42:51.929Z,6.60
2018-01-05T06:43:55.963Z,6.60
2018-01-05T06:44:59.239Z,6.60
2018-01-05T06:46:02.570Z,6.60
2018-01-05T06:47:05.094Z,6.60
2018-01-05T06:48:08.374Z,6.60
2018-01-05T06:49:11.667Z,6.60
2018-01-05T06:50:14.949Z,6.60
2018-01-05T06:51:18.262Z,6.70
2018-01-05T06:52:20.768Z,6.60
2018-01-05T06:53:23.285Z,6.60
2018-01-05T06:54:25.805Z,6.70
2018-01-05T06:55:28.317Z,6.70
2018-01-05T06:56:30.888Z,6.60
2018-01-05T06:57:33.413Z,6.70
2018-01-05T06:58:36.701Z,6.70
2018-01-05T06:59:39.989Z,6.70
2018-01-05T07:00:43.273Z,6.70
2018-01-05T07:01:46.617Z,6.70
2018-01-05T07:02:49.129Z,6.70
2018-01-05T07:03:52.412Z,6.70
2018-01-05T07:04:55.738Z,6.70
2018-01-05T07:05:58.260Z,6.70
2018-01-05T07:07:01.592Z,6.70
2018-01-05T07:08:04.104Z,6.70
2018-01-05T07:09:07.394Z,6.70
2018-01-05T07:10:10.678Z,6.70
2018-01-05T07:11:13.964Z,6.70
2018-01-05T07:12:17.284Z,6.70
2018-01-05T07:13:19.810Z,6.70
2018-01-05T07:14:22.353Z,6.70
2018-01-05T07:15:24.875Z,6.70
2018-01-05T07:16:27.397Z,6.70
2018-01-05T07:17:29.962Z,6.70
2018-01-05T07:18:33.250Z,6.70
2018-01-05T07:19:36.544Z,6.70
2018-01-05T07:20:39.836Z,6.80
2018-01-05T07:21:42.349Z,6.80
2018-01-05T07:22:44.912Z,6.80
2018-01-05T07:23:47.476Z,6.80
2018-01-05T07:24:49.998Z,6.80
2018-01-05T07:25:52.545Z,6.80
2018-01-05T07:26:55.877Z,6.90
2018-01-05T07:27:58.386Z,6.80
2018-01-05T07:29:00.921Z,6.90
2018-01-05T07:30:03.437Z,6.90
2018-01-05T07:31:06.716Z,6.90
2018-01-05T07:32:10.041Z,6.90
2018-01-05T07:33:12.613Z,6.90
2018-01-05T07:34:15.103Z,6.90
2018-01-05T07:35:17.621Z,6.90
2018-01-05T07:36:20.132Z,6.90
2018-01-05T07:37:22.694Z,7.00
2018-01-05T07:38:25.218Z,7.00
2018-01-05T07:39:27.741Z,7.00
2018-01-05T07:40:30.255Z,7.00
2018-01-05T07:41:32.798Z,6.90
2018-01-05T07:42:36.125Z,7.00
2018-01-05T07:43:38.646Z,6.90
2018-01-05T07:44:41.925Z,7.00
2018-01-05T07:45:45.206Z,7.00
2018-01-05T07:46:48.493Z,7.00
2018-01-05T07:47:51.800Z,7.00
2018-01-05T07:48:54.321Z,7.00
2018-01-05T07:49:56.963Z,7.00
2018-01-05T07:50:59.500Z,7.10
2018-01-05T07:52:02.049Z,7.10
2018-01-05T07:53:05.327Z,7.10
2018-01-05T07:54:08.616Z,7.10
2018-01-05T07:55:11.901Z,7.10
2018-01-05T07:56:15.225Z,7.20
2018-01-05T07:57:17.750Z,7.10
2018-01-05T07:58:21.038Z,7.10
2018-01-05T07:59:24.317Z,7.10
2018-01-05T08:00:27.605Z,7.20
2018-01-05T08:01:30.926Z,7.20
2018-01-05T08:02:33.454Z,7.20
2018-01-05T08:03:36.748Z,7.20
2018-01-05T08:04:39.305Z,7.20
2018-01-05T08:05:42.589Z,7.20
2018-01-05T08:06:45.874Z,7.20
2018-01-05T08:07:49.169Z,7.30
2018-01-05T08:08:51.726Z,7.30
2018-01-05T08:09:55.041Z,7.30
2018-01-05T08:10:57.552Z,7.30
2018-01-05T08:12:00.078Z,7.30
2018-01-05T08:13:02.611Z,7.30
2018-01-05T08:14:05.893Z,7.30
2018-01-05T08:15:09.220Z,7.30
2018-01-05T08:16:11.742Z,7.30
2018-01-05T08:17:15.024Z,7.30
2018-01-05T08:18:18.312Z,7.30
2018-01-05T08:19:20.843Z,7.30
2018-01-05T08:20:23.394Z,7.30
2018-01-05T08:21:25.941Z,7.30
2018-01-05T08:22:28.457Z,7.40
2018-01-05T08:23:30.968Z,7.40
2018-01-05T08:24:33.489Z,7.40
2018-01-05T08:25:36.032Z,7.50
2018-01-05T08:26:38.593Z,7.50
2018-01-05T08:27:41.109Z,7.50
2018-01-05T08:28:43.623Z,7.50
2018-01-05T08:29:46.144Z,7.50
2018-01-05T08:30:48.659Z,7.60
2018-01-05T08:31:51.209Z,7.60
2018-01-05T08:32:53.726Z,7.60
2018-01-05T08:33:57.014Z,7.70
2018-01-05T08:35:00.301Z,7.70
2018-01-05T08:36:03.613Z,7.70
2018-01-05T08:37:06.165Z,7.70
2018-01-05T08:38:08.678Z,7.70
2018-01-05T08:39:11.204Z,7.80
2018-01-05T08:40:13.733Z,7.70
2018-01-05T08:41:16.260Z,7.80
2018-01-05T08:42:18.825Z,7.80
2018-01-05T08:43:21.334Z,7.80
2018-01-05T08:44:24.620Z,7.80
2018-01-05T08:45:27.897Z,7.80
2018-01-05T08:46:31.181Z,7.80
2018-01-05T08:47:34.507Z,7.80
2018-01-05T08:48:37.021Z,7.80
2018-01-05T08:49:39.533Z,7.90
2018-01-05T08:50:42.078Z,7.90
2018-01-05T08:51:45.353Z,7.90
2018-01-05T08:52:48.636Z,8.00
2018-01-05T08:53:51.953Z,8.00
2018-01-05T08:54:54.473Z,8.00
2018-01-05T08:55:57.342Z,8.00
2018-01-05T08:56:59.864Z,8.00
2018-01-05T08:58:02.385Z,8.00
2018-01-05T08:59:05.698Z,8.00
2018-01-05T09:00:08.234Z,8.00
2018-01-05T09:01:11.517Z,8.00
2018-01-05T09:02:14.808Z,8.00
2018-01-05T09:03:18.125Z,8.00
2018-01-05T09:04:20.635Z,8.00
2018-01-05T09:05:23.153Z,8.00
2018-01-05T09:06:25.711Z,8.00
2018-01-05T09:07:28.285Z,8.10
2018-01-05T09:08:30.821Z,8.10
2018-01-05T09:09:34.111Z,8.10
2018-01-05T09:10:37.429Z,8.10
2018-01-05T09:11:39.957Z,8.10
2018-01-05T09:12:43.251Z,8.10
2018-01-05T09:13:46.530Z,8.10
2018-01-05T09:14:49.817Z,8.10
2018-01-05T09:15:53.120Z,8.10
2018-01-05T09:16:55.849Z,8.10
2018-01-05T09:17:58.369Z,8.10
2018-01-05T09:19:00.910Z,8.10
2018-01-05T09:20:03.425Z,8.10
2018-01-05T09:21:06.736Z,8.00
2018-01-05T09:22:09.293Z,8.00
2018-01-05T09:23:11.813Z,8.00
2018-01-05T09:24:14.337Z,8.00
2018-01-05T09:25:17.621Z,8.00
2018-01-05T09:26:20.900Z,8.00
2018-01-05T09:27:23.453Z,8.00
2018-01-05T09:28:26.005Z,8.00
2018-01-05T09:29:28.535Z,8.00
2018-01-05T09:30:31.049Z,8.00
2018-01-05T09:31:33.605Z,8.00
2018-01-05T09:32:36.125Z,8.00
2018-01-05T09:33:38.644Z,8.00
2018-01-05T09:34:41.164Z,8.00
2018-01-05T09:35:44.454Z,8.10
2018-01-05T09:36:47.000Z,8.10
2018-01-05T09:37:49.537Z,8.10
2018-01-05T09:38:52.049Z,8.10
2018-01-05T09:39:55.387Z,8.10
2018-01-05T09:40:58.057Z,8.10
2018-01-05T09:42:00.577Z,8.10
2018-01-05T09:43:03.095Z,8.10
2018-01-05T09:44:05.609Z,8.10
2018-01-05T09:45:08.159Z,8.10
2018-01-05T09:46:11.435Z,8.20
2018-01-05T09:47:13.954Z,8.10
2018-01-05T09:48:16.476Z,8.10
2018-01-05T09:49:19.000Z,8.20
2018-01-05T09:50:21.552Z,8.20
2018-01-05T09:51:24.081Z,8.30
2018-01-05T09:52:26.600Z,8.20
2018-01-05T09:53:29.668Z,8.30
2018-01-05T09:54:32.213Z,8.30
2018-01-05T09:55:34.734Z,8.40
2018-01-05T09:56:38.023Z,8.50
2018-01-05T09:57:40.577Z,8.50
2018-01-05T09:58:43.864Z,8.50
2018-01-05T09:59:47.181Z,8.60
2018-01-05T10:00:49.698Z,8.60
2018-01-05T10:01:52.229Z,8.60
2018-01-05T10:02:54.758Z,8.60
2018-01-05T10:03:57.297Z,8.70
2018-01-05T10:04:59.851Z,8.70
2018-01-05T10:06:02.363Z,8.70
2018-01-05T10:07:04.889Z,8.70
2018-01-05T10:08:07.415Z,8.70
2018-01-05T10:09:09.936Z,8.70
2018-01-05T10:10:13.261Z,8.80
2018-01-05T10:11:15.772Z,8.80
2018-01-05T10:12:18.301Z,8.90
2018-01-05T10:13:20.814Z,8.90
2018-01-05T10:14:24.103Z,9.00
2018-01-05T10:15:27.420Z,9.00
2018-01-05T10:16:29.934Z,9.00
2018-01-05T10:17:32.490Z,9.10
2018-01-05T10:18:35.010Z,9.10
2018-01-05T10:19:37.533Z,9.10
2018-01-05T10:20:40.053Z,9.10
2018-01-05T10:21:42.632Z,9.10
2018-01-05T10:22:45.157Z,9.10
2018-01-05T10:23:48.433Z,9.00
2018-01-05T10:24:51.722Z,9.00
2018-01-05T10:25:55.007Z,9.10
2018-01-05T10:26:58.290Z,9.10
2018-01-05T10:28:01.596Z,9.10
2018-01-05T10:29:04.125Z,9.10
2018-01-05T10:30:06.641Z,9.20
2018-01-05T10:31:09.202Z,9.20
2018-01-05T10:32:11.886Z,9.40
2018-01-05T10:33:14.418Z,9.60
2018-01-05T10:34:16.978Z,10.00
2018-01-05T10:35:20.260Z,10.90
2018-01-05T10:36:23.582Z,11.40
2018-01-05T10:37:26.097Z,11.40
2018-01-05T10:38:29.385Z,12.10
2018-01-05T10:39:32.716Z,11.80
2018-01-05T10:40:35.233Z,11.80
2018-01-05T10:41:38.512Z,11.10
2018-01-05T10:42:41.804Z,10.90
2018-01-05T10:43:45.086Z,10.70
2018-01-05T10:44:48.421Z,10.60
2018-01-05T10:45:50.937Z,10.50
2018-01-05T10:46:54.221Z,10.30
2018-01-05T10:47:57.513Z,10.20
2018-01-05T10:49:00.038Z,10.20
2018-01-05T10:50:02.599Z,10.10
2018-01-05T10:51:05.158Z,10.20
2018-01-05T10:52:07.686Z,10.10
2018-01-05T10:53:10.205Z,10.10
2018-01-05T10:54:12.744Z,10.00
2018-01-05T10:55:15.293Z,10.00
2018-01-05T10:56:17.853Z,10.00
2018-01-05T10:57:20.376Z,9.90
2018-01-05T10:58:22.897Z,9.90
2018-01-05T10:59:25.409Z,9.90
2018-01-05T11:00:27.930Z,9.90
2018-01-05T11:01:30.486Z,9.90
2018-01-05T11:02:33.001Z,9.90
2018-01-05T11:03:35.521Z,9.80
2018-01-05T11:04:38.072Z,9.80
2018-01-05T11:05:41.349Z,9.70
2018-01-05T11:06:44.636Z,9.70
2018-01-05T11:07:47.924Z,9.70
2018-01-05T11:08:50.456Z,9.70
2018-01-05T11:09:52.997Z,9.70
2018-01-05T11:10:55.517Z,9.70
2018-01-05T11:11:58.844Z,9.80
2018-01-05T11:13:01.374Z,9.70
2018-01-05T11:14:03.884Z,9.80
2018-01-05T11:15:06.393Z,9.80
2018-01-05T11:16:09.681Z,9.90
2018-01-05T11:17:12.234Z,9.90
2018-01-05T11:18:15.559Z,9.90
2018-01-05T11:19:18.105Z,9.90
2018-01-05T11:20:20.629Z,10.00
2018-01-05T11:21:23.148Z,10.00
2018-01-05T11:22:25.665Z,10.10
2018-01-05T11:23:28.215Z,10.10
2018-01-05T11:24:30.765Z,10.10
2018-01-05T11:25:33.284Z,10.20
2018-01-05T11:26:36.573Z,10.10
2018-01-05T11:27:39.861Z,10.20
2018-01-05T11:28:43.143Z,10.40
2018-01-05T11:29:45.709Z,10.40
2018-01-05T11:30:48.995Z,10.60
2018-01-05T11:31:52.287Z,10.70
2018-01-05T11:32:54.816Z,10.70
2018-01-05T11:33:57.338Z,10.80
2018-01-05T11:34:59.907Z,10.80
2018-01-05T11:36:02.436Z,10.80
2018-01-05T11:37:04.980Z,10.70
2018-01-05T11:38:07.547Z,10.60
2018-01-05T11:39:10.244Z,10.60
2018-01-05T11:40:13.581Z,10.60
2018-01-05T11:41:16.104Z,10.60
2018-01-05T11:42:18.625Z,10.60
2018-01-05T11:43:21.161Z,10.60
2018-01-05T11:44:23.692Z,10.50
2018-01-05T11:45:27.008Z,10.40
2018-01-05T11:46:29.563Z,10.40
2018-01-05T11:47:32.075Z,10.40
2018-01-05T11:48:34.595Z,10.40
2018-01-05T11:49:37.119Z,10.30
2018-01-05T11:50:39.668Z,10.30
2018-01-05T11:51:42.220Z,10.30
2018-01-05T11:52:44.742Z,10.30
2018-01-05T11:53:48.025Z,10.30
2018-01-05T11:54:51.342Z,10.20
2018-01-05T11:55:53.873Z,10.20
2018-01-05T11:56:57.174Z,10.20
2018-01-05T11:57:59.861Z,10.20
2018-01-05T11:59:02.386Z,10.10
2018-01-05T12:00:05.709Z,10.20
2018-01-05T12:01:08.216Z,10.10
2018-01-05T12:02:10.857Z,10.10
2018-01-05T12:03:13.452Z,10.10
2018-01-05T12:04:16.008Z,10.10
2018-01-05T12:05:18.530Z,10.10
2018-01-05T12:06:21.050Z,10.10
2018-01-05T12:07:23.564Z,10.10
2018-01-05T12:08:26.135Z,10.00
2018-01-05T12:09:28.652Z,10.00
2018-01-05T12:10:31.169Z,10.00
2018-01-05T12:11:33.693Z,10.00
2018-01-05T12:12:36.973Z,10.00
2018-01-05T12:13:40.293Z,10.00
2018-01-05T12:14:42.854Z,10.00
2018-01-05T12:15:45.368Z,10.00
2018-01-05T12:16:47.883Z,10.00
2018-01-05T12:17:50.393Z,9.90
2018-01-05T12:18:52.908Z,10.00
2018-01-05T12:19:55.474Z,10.00
2018-01-05T12:20:58.783Z,10.00
2018-01-05T12:22:01.384Z,10.00
2018-01-05T12:23:03.902Z,10.00
2018-01-05T12:24:06.433Z,10.00
2018-01-05T12:25:08.985Z,10.00
2018-01-05T12:26:11.549Z,10.00
2018-01-05T12:27:14.094Z,10.00
2018-01-05T12:28:16.613Z,10.00
2018-01-05T12:29:19.899Z,10.00
2018-01-05T12:30:23.225Z,9.90
2018-01-05T12:31:25.744Z,9.90
2018-01-05T12:32:29.034Z,9.90
2018-01-05T12:33:32.314Z,9.90
2018-01-05T12:34:35.592Z,9.80
2018-01-05T12:35:38.909Z,9.80
2018-01-05T12:36:41.529Z,9.80
2018-01-05T12:37:44.041Z,9.80
2018-01-05T12:38:46.557Z,9.80
2018-01-05T12:39:49.082Z,9.80
2018-01-05T12:40:51.597Z,9.80
2018-01-05T12:41:54.154Z,9.80
2018-01-05T12:42:56.733Z,9.90
2018-01-05T12:43:59.205Z,9.90
2018-01-05T12:45:02.493Z,9.90
2018-01-05T12:46:05.774Z,9.80
2018-01-05T12:47:09.090Z,9.80
2018-01-05T12:48:11.713Z,9.80
2018-01-05T12:49:14.224Z,9.80
2018-01-05T12:50:16.749Z,9.80
2018-01-05T12:51:19.261Z,9.80
2018-01-05T12:52:21.833Z,9.80
2018-01-05T12:53:24.349Z,9.80
2018-01-05T12:54:26.881Z,9.80
2018-01-05T12:55:29.406Z,9.80
2018-01-05T12:56:31.912Z,9.80
2018-01-05T12:57:34.474Z,9.80
2018-01-05T12:58:37.029Z,9.80
2018-01-05T12:59:39.549Z,9.80
2018-01-05T13:00:42.065Z,9.80
2018-01-05T13:01:44.589Z,9.80
2018-01-05T13:02:47.901Z,9.80
2018-01-05T13:03:50.414Z,9.80
2018-01-05T13:04:52.961Z,9.80
2018-01-05T13:05:55.485Z,9.80
2018-01-05T13:06:58.000Z,9.80
2018-01-05T13:08:00.564Z,9.80
2018-01-05T13:09:03.068Z,9.80
2018-01-05T13:10:06.355Z,9.80
2018-01-05T13:11:08.864Z,9.80
2018-01-05T13:12:11.390Z,9.80
2018-01-05T13:13:13.946Z,9.80
2018-01-05T13:14:17.261Z,9.80
2018-01-05T13:15:19.790Z,9.80
2018-01-05T13:16:23.077Z,9.80
2018-01-05T13:17:26.366Z,9.80
2018-01-05T13:18:29.662Z,9.80
2018-01-05T13:19:32.205Z,9.80
2018-01-05T13:20:35.484Z,9.90
2018-01-05T13:21:38.001Z,9.80
2018-01-05T13:22:40.517Z,9.90
2018-01-05T13:23:43.835Z,9.90
2018-01-05T13:24:46.362Z,9.90
2018-01-05T13:25:48.913Z,9.90
2018-01-05T13:26:51.434Z,9.90
2018-01-05T13:27:53.953Z,9.90
2018-01-05T13:28:56.481Z,9.90
2018-01-05T13:29:58.996Z,9.90
2018-01-05T13:31:01.566Z,9.80
2018-01-05T13:32:04.085Z,9.90
2018-01-05T13:33:06.636Z,9.90
2018-01-05T13:34:09.155Z,9.90
2018-01-05T13:35:11.679Z,9.90
2018-01-05T13:36:14.269Z,9.90
2018-01-05T13:37:16.781Z,9.90
2018-01-05T13:38:19.292Z,9.80
2018-01-05T13:39:21.815Z,9.80
2018-01-05T13:40:24.348Z,9.80
2018-01-05T13:41:26.896Z,9.70
2018-01-05T13:42:29.407Z,9.70
2018-01-05T13:43:32.724Z,9.70
2018-01-05T13:44:35.248Z,9.70
2018-01-05T13:45:38.524Z,9.70
2018-01-05T13:46:41.796Z,9.70
2018-01-05T13:47:44.309Z,9.70
2018-01-05T13:48:46.871Z,9.70
2018-01-05T13:49:49.390Z,9.70
2018-01-05T13:50:51.925Z,9.70
2018-01-05T13:51:54.439Z,9.70
2018-01-05T13:52:57.720Z,9.70
2018-01-05T13:54:00.275Z,9.70